createdAt,value
2023-02-06T00:00:50.261Z,74.50
2023-02-06T00:03:17.860Z,74.60
2023-02-06T00:05:53.098Z,74.10
2023-02-06T00:08:19.938Z,73.70
2023-02-06T00:10:46.772Z,73.40
2023-02-06T00:13:13.488Z,73.70
2023-02-06T00:15:40.318Z,73.70
2023-02-06T00:18:07.023Z,73.70
2023-02-06T00:20:33.745Z,73.70
2023-02-06T00:23:00.511Z,73.80
2023-02-06T00:25:27.214Z,73.70
2023-02-06T00:27:53.926Z,73.80
2023-02-06T00:30:20.761Z,74.10
2023-02-06T00:32:47.552Z,73.90
2023-02-06T00:35:14.395Z,73.80
2023-02-06T00:37:41.137Z,73.90
2023-02-06T00:40:08.558Z,73.90
2023-02-06T00:42:35.312Z,74.30
2023-02-06T00:45:02.028Z,73.90
2023-02-06T00:47:28.765Z,74.00
2023-02-06T00:49:55.483Z,74.00
2023-02-06T00:52:22.215Z,74.00
2023-02-06T00:54:48.984Z,74.00
2023-02-06T00:57:15.701Z,73.90
2023-02-06T00:59:42.449Z,74.00
2023-02-06T01:02:09.767Z,74.20
2023-02-06T01:04:36.668Z,74.80
2023-02-06T01:07:03.405Z,74.70
2023-02-06T01:09:31.043Z,74.50
2023-02-06T01:11:57.927Z,74.60
2023-02-06T01:14:26.013Z,74.70
2023-02-06T01:16:52.798Z,74.50
2023-02-06T01:19:19.551Z,74.50
2023-02-06T01:21:46.948Z,74.50
2023-02-06T01:24:13.704Z,74.50
2023-02-06T01:26:40.496Z,74.30
2023-02-06T01:29:07.265Z,74.40
2023-02-06T01:31:34.294Z,74.30
2023-02-06T01:34:04.023Z,74.30
2023-02-06T01:36:30.743Z,74.40
2023-02-06T01:38:57.521Z,74.30
2023-02-06T01:41:24.623Z,74.50
2023-02-06T01:44:16.477Z,74.30
2023-02-06T01:46:46.193Z,76.40
2023-02-06T01:49:25.303Z,75.80
2023-02-06T01:51:56.082Z,76.00
2023-02-06T01:54:23.514Z,76.00
2023-02-06T01:56:56.283Z,74.90
2023-02-06T01:59:24.302Z,76.30
2023-02-06T02:01:51.171Z,75.10
2023-02-06T02:04:21.371Z,74.80
2023-02-06T02:07:04.551Z,76.10
2023-02-06T02:09:32.111Z,76.30
2023-02-06T02:11:58.874Z,74.60
2023-02-06T02:14:25.684Z,74.60
2023-02-06T02:16:58.352Z,74.60
2023-02-06T02:19:25.056Z,74.10
2023-02-06T02:21:54.514Z,74.60
2023-02-06T02:24:45.548Z,76.60
2023-02-06T02:27:37.093Z,76.50
2023-02-06T02:30:32.203Z,76.40
2023-02-06T02:33:23.168Z,76.50
2023-02-06T02:36:05.951Z,76.50
2023-02-06T02:38:44.688Z,75.40
2023-02-06T02:41:27.684Z,74.50
2023-02-06T02:44:04.999Z,77.40
2023-02-06T02:46:44.664Z,76.90
2023-02-06T02:49:17.344Z,77.30
2023-02-06T02:51:46.079Z,76.80
2023-02-06T02:54:13.128Z,76.30
2023-02-06T02:56:40.563Z,74.60
2023-02-06T02:59:13.330Z,76.10
2023-02-06T03:01:49.907Z,77.30
2023-02-06T03:04:22.975Z,77.80
2023-02-06T03:07:03.111Z,77.10
2023-02-06T03:09:33.168Z,77.40
2023-02-06T03:12:25.108Z,77.20
2023-02-06T03:14:55.957Z,77.00
2023-02-06T03:17:40.472Z,75.60
2023-02-06T03:20:10.971Z,77.00
2023-02-06T03:22:40.835Z,77.30
2023-02-06T03:25:12.378Z,76.90
2023-02-06T03:27:42.353Z,77.50
2023-02-06T03:30:11.805Z,77.20
2023-02-06T03:32:44.700Z,77.40
2023-02-06T03:35:22.318Z,77.80
2023-02-06T03:37:50.092Z,78.20
2023-02-06T03:40:18.171Z,76.50
2023-02-06T03:42:51.052Z,77.10
2023-02-06T03:45:26.797Z,78.00
2023-02-06T03:47:56.583Z,77.90
2023-02-06T03:50:26.009Z,77.50
2023-02-06T03:52:54.928Z,77.40
2023-02-06T03:55:24.004Z,77.10
2023-02-06T03:57:56.247Z,77.30
2023-02-06T04:00:23.446Z,77.40
2023-02-06T04:02:52.410Z,76.30
2023-02-06T04:05:20.052Z,77.30
2023-02-06T04:07:47.237Z,76.70
2023-02-06T04:10:14.098Z,76.50
2023-02-06T04:12:40.852Z,76.20
2023-02-06T04:15:07.969Z,76.20
2023-02-06T04:17:49.695Z,76.60
2023-02-06T04:20:21.041Z,76.10
2023-02-06T04:22:47.914Z,76.40
2023-02-06T04:25:15.081Z,76.10
2023-02-06T04:27:41.847Z,76.60
2023-02-06T04:30:09.367Z,75.90
2023-02-06T04:32:36.182Z,76.30
2023-02-06T04:35:02.946Z,75.90
2023-02-06T04:37:29.727Z,75.80
2023-02-06T04:39:56.440Z,75.90
2023-02-06T04:42:23.234Z,75.70
2023-02-06T04:44:50.040Z,75.80
2023-02-06T04:47:16.799Z,76.10
2023-02-06T04:49:43.537Z,76.00
2023-02-06T04:52:10.353Z,76.20
2023-02-06T04:54:37.165Z,76.00
2023-02-06T04:57:03.996Z,76.00
2023-02-06T04:59:30.841Z,76.10
2023-02-06T05:01:57.585Z,76.30
2023-02-06T05:04:24.329Z,75.90
2023-02-06T05:06:51.113Z,76.50
2023-02-06T05:09:17.820Z,76.20
2023-02-06T05:11:44.501Z,76.10
2023-02-06T05:14:11.327Z,76.00
2023-02-06T05:16:38.610Z,76.00
2023-02-06T05:19:05.383Z,77.10
2023-02-06T05:21:32.137Z,76.70
2023-02-06T05:23:58.864Z,76.60
2023-02-06T05:26:25.658Z,76.40
2023-02-06T05:28:52.730Z,76.60
2023-02-06T05:31:20.247Z,76.70
2023-02-06T05:33:52.478Z,76.60
2023-02-06T05:36:20.430Z,77.50
2023-02-06T05:38:48.622Z,77.10
2023-02-06T05:41:16.155Z,77.20
2023-02-06T05:43:43.078Z,76.40
2023-02-06T05:46:11.169Z,76.10
2023-02-06T05:48:38.532Z,75.90
2023-02-06T05:51:05.642Z,76.20
2023-02-06T05:53:32.505Z,76.40
2023-02-06T05:55:59.327Z,76.40
2023-02-06T05:58:26.147Z,77.00
2023-02-06T06:00:52.868Z,76.00
2023-02-06T06:03:19.577Z,76.10
2023-02-06T06:05:46.365Z,76.00
2023-02-06T06:08:13.194Z,76.00
2023-02-06T06:10:40.034Z,76.40
2023-02-06T06:13:07.002Z,76.20
2023-02-06T06:15:34.085Z,76.40
2023-02-06T06:18:01.200Z,76.10
2023-02-06T06:20:28.016Z,75.90
2023-02-06T06:22:54.791Z,76.00
2023-02-06T06:25:21.601Z,76.00
2023-02-06T06:27:48.392Z,75.90
2023-02-06T06:30:15.278Z,76.00
2023-02-06T06:32:42.061Z,76.00
2023-02-06T06:35:09.161Z,76.10
2023-02-06T06:37:35.987Z,76.10
2023-02-06T06:40:02.757Z,75.90
2023-02-06T06:42:29.492Z,75.90
2023-02-06T06:44:56.249Z,75.80
2023-02-06T06:47:22.956Z,75.70
2023-02-06T06:49:49.743Z,76.30
2023-02-06T06:52:24.767Z,76.30
2023-02-06T06:54:52.600Z,76.00
2023-02-06T06:57:20.308Z,76.10
2023-02-06T06:59:47.026Z,76.30
2023-02-06T07:02:13.966Z,76.40
2023-02-06T07:04:40.678Z,76.20
2023-02-06T07:07:07.859Z,76.00
2023-02-06T07:09:35.100Z,76.40
2023-02-06T07:12:01.953Z,76.30
2023-02-06T07:14:28.759Z,75.70
2023-02-06T07:16:56.455Z,75.60
2023-02-06T07:19:23.344Z,75.80
2023-02-06T07:21:50.076Z,75.80
2023-02-06T07:24:16.873Z,75.80
2023-02-06T07:26:43.570Z,75.80
2023-02-06T07:29:10.478Z,75.70
2023-02-06T07:31:37.317Z,75.90
2023-02-06T07:34:04.131Z,75.70
2023-02-06T07:36:30.930Z,75.80
2023-02-06T07:38:57.826Z,75.80
2023-02-06T07:41:24.671Z,76.10
2023-02-06T07:43:51.479Z,75.80
2023-02-06T07:46:18.336Z,75.80
2023-02-06T07:48:45.099Z,75.80
2023-02-06T07:51:11.966Z,75.70
2023-02-06T07:53:39.125Z,75.70
2023-02-06T07:56:14.334Z,76.20
2023-02-06T07:58:41.314Z,77.60
2023-02-06T08:01:08.818Z,75.80
2023-02-06T08:03:36.134Z,76.20
2023-02-06T08:06:11.816Z,75.70
2023-02-06T08:08:38.915Z,76.60
2023-02-06T08:11:08.250Z,74.90
2023-02-06T08:13:35.624Z,76.40
2023-02-06T08:16:06.745Z,75.40
2023-02-06T08:18:33.847Z,76.90
2023-02-06T08:21:02.529Z,75.50
2023-02-06T08:23:29.405Z,76.10
2023-02-06T08:26:04.965Z,75.00
2023-02-06T08:28:32.179Z,77.10
2023-02-06T08:30:59.011Z,75.10
2023-02-06T08:33:26.239Z,74.90
2023-02-06T08:35:54.068Z,75.00
2023-02-06T08:38:20.826Z,74.90
2023-02-06T08:40:47.520Z,74.90
2023-02-06T08:43:14.327Z,75.00
2023-02-06T08:45:41.095Z,75.00
2023-02-06T08:48:07.853Z,75.10
2023-02-06T08:50:34.843Z,76.00
2023-02-06T08:53:03.135Z,74.90
2023-02-06T08:55:30.001Z,75.20
2023-02-06T08:57:57.019Z,75.40
2023-02-06T09:00:23.804Z,76.40
2023-02-06T09:02:53.400Z,75.80
2023-02-06T09:05:21.463Z,77.20
2023-02-06T09:07:48.560Z,76.40
2023-02-06T09:10:26.758Z,76.70
2023-02-06T09:12:54.953Z,75.80
2023-02-06T09:15:21.956Z,75.90
2023-02-06T09:17:48.952Z,76.00
2023-02-06T09:20:15.896Z,75.70
2023-02-06T09:22:44.477Z,75.70
2023-02-06T09:25:11.595Z,75.50
2023-02-06T09:27:38.336Z,75.50
2023-02-06T09:30:05.869Z,75.40
2023-02-06T09:32:32.723Z,75.90
2023-02-06T09:34:59.499Z,75.80
2023-02-06T09:37:26.208Z,75.30
2023-02-06T09:39:52.886Z,74.90
2023-02-06T09:42:28.650Z,74.70
2023-02-06T09:45:05.769Z,76.30
2023-02-06T09:47:40.159Z,76.70
2023-02-06T09:50:23.938Z,76.30
2023-02-06T09:53:08.862Z,76.50
2023-02-06T09:55:43.815Z,74.10
2023-02-06T09:58:22.887Z,76.70
2023-02-06T10:00:56.260Z,76.60
2023-02-06T10:03:43.901Z,76.20
2023-02-06T10:06:19.257Z,76.20
2023-02-06T10:09:14.066Z,74.80
2023-02-06T10:11:51.910Z,75.50
2023-02-06T10:14:26.731Z,75.70
2023-02-06T10:17:19.179Z,75.00
2023-02-06T10:19:59.280Z,74.90
2023-02-06T10:22:59.260Z,74.40
2023-02-06T10:25:36.484Z,75.60
2023-02-06T10:28:12.507Z,75.10
2023-02-06T10:31:00.738Z,75.60
2023-02-06T10:33:52.860Z,75.40
2023-02-06T10:36:50.320Z,75.20
2023-02-06T10:39:35.576Z,75.30
2023-02-06T10:42:24.224Z,72.90
2023-02-06T10:45:19.260Z,75.40
2023-02-06T10:47:58.928Z,74.50
2023-02-06T10:50:49.083Z,74.40
2023-02-06T10:53:34.133Z,74.10
2023-02-06T10:56:05.829Z,75.00
2023-02-06T10:58:45.793Z,74.30
2023-02-06T11:01:25.544Z,73.90
2023-02-06T11:04:00.514Z,73.60
2023-02-06T11:06:28.944Z,73.40
2023-02-06T11:08:55.988Z,72.70
2023-02-06T11:11:30.017Z,71.80
2023-02-06T11:14:17.070Z,71.50
2023-02-06T11:16:44.260Z,71.90
2023-02-06T11:19:33.896Z,71.10
2023-02-06T11:22:26.175Z,71.40
2023-02-06T11:25:17.760Z,71.40
2023-02-06T11:27:45.163Z,70.70
2023-02-06T11:30:37.549Z,68.80
2023-02-06T11:33:26.487Z,70.30
2023-02-06T11:36:03.460Z,70.40
2023-02-06T11:38:31.915Z,69.80
2023-02-06T11:41:07.098Z,68.70
2023-02-06T11:43:48.685Z,68.40
2023-02-06T11:46:23.674Z,69.50
2023-02-06T11:48:56.529Z,67.10
2023-02-06T11:51:24.331Z,68.50
2023-02-06T11:54:01.222Z,66.00
2023-02-06T11:56:30.108Z,67.50
2023-02-06T11:59:21.425Z,66.20
2023-02-06T12:01:48.730Z,67.60
2023-02-06T12:04:25.869Z,65.70
2023-02-06T12:06:58.324Z,66.60
2023-02-06T12:09:25.180Z,66.00
2023-02-06T12:11:55.073Z,65.20
2023-02-06T12:14:49.282Z,64.80
2023-02-06T12:17:31.323Z,66.50
2023-02-06T12:20:11.969Z,67.10
2023-02-06T12:22:47.770Z,65.40
2023-02-06T12:25:33.039Z,65.80
2023-02-06T12:28:32.858Z,65.30
2023-02-06T12:31:10.467Z,64.20
2023-02-06T12:33:43.244Z,63.40
2023-02-06T12:36:27.789Z,63.30
2023-02-06T12:39:06.256Z,63.70
2023-02-06T12:42:00.932Z,65.00
2023-02-06T12:44:31.647Z,65.10
2023-02-06T12:47:04.933Z,64.90
2023-02-06T12:49:51.343Z,63.90
2023-02-06T12:52:31.120Z,62.20
2023-02-06T12:55:18.593Z,62.50
2023-02-06T12:57:45.707Z,61.70
2023-02-06T13:00:39.366Z,61.20
2023-02-06T13:03:16.382Z,62.90
2023-02-06T13:05:48.947Z,64.70
2023-02-06T13:08:22.438Z,63.20
2023-02-06T13:11:22.513Z,62.30
2023-02-06T13:13:49.804Z,60.90
2023-02-06T13:16:16.608Z,58.80
2023-02-06T13:18:50.500Z,57.90
2023-02-06T13:21:30.240Z,57.20
2023-02-06T13:24:02.808Z,56.10
2023-02-06T13:26:53.533Z,58.10
2023-02-06T13:29:25.239Z,58.50
2023-02-06T13:32:19.990Z,58.70
2023-02-06T13:35:02.307Z,59.30
2023-02-06T13:37:43.676Z,59.20
2023-02-06T13:40:32.126Z,60.80
2023-02-06T13:43:08.985Z,60.60
2023-02-06T13:45:44.890Z,61.30
2023-02-06T13:48:57.866Z,58.70
2023-02-06T13:51:50.818Z,61.40
2023-02-06T13:54:29.888Z,61.50
2023-02-06T13:57:40.018Z,61.10
2023-02-06T14:00:15.825Z,60.30
2023-02-06T14:02:48.445Z,59.10
2023-02-06T14:05:30.478Z,58.50
2023-02-06T14:08:42.083Z,57.00
2023-02-06T14:11:26.460Z,57.50
2023-02-06T14:14:43.658Z,57.50
2023-02-06T14:17:34.176Z,59.20
2023-02-06T14:20:29.845Z,60.10
2023-02-06T14:23:19.616Z,61.00
2023-02-06T14:26:11.236Z,61.20
2023-02-06T14:29:00.318Z,61.70
2023-02-06T14:31:46.543Z,61.90
2023-02-06T14:34:39.801Z,59.10
2023-02-06T14:37:31.210Z,62.30
2023-02-06T14:40:04.363Z,61.30
2023-02-06T14:42:42.111Z,60.60
2023-02-06T14:45:29.333Z,60.00
2023-02-06T14:48:01.698Z,61.30
2023-02-06T14:50:35.721Z,61.10
2023-02-06T14:53:08.912Z,61.70
2023-02-06T14:55:41.290Z,61.60
2023-02-06T14:58:27.498Z,61.40
2023-02-06T15:00:55.856Z,61.70
2023-02-06T15:03:27.949Z,60.30
2023-02-06T15:06:01.549Z,60.70
2023-02-06T15:08:28.486Z,61.60
2023-02-06T15:11:01.790Z,60.00
2023-02-06T15:13:34.899Z,61.80
2023-02-06T15:16:08.500Z,61.40
2023-02-06T15:18:36.393Z,63.30
2023-02-06T15:21:18.920Z,61.20
2023-02-06T15:23:58.064Z,61.90
2023-02-06T15:26:41.097Z,61.90
2023-02-06T15:29:22.894Z,62.80
2023-02-06T15:31:51.436Z,62.80
2023-02-06T15:34:20.018Z,61.40
2023-02-06T15:36:46.726Z,61.80
2023-02-06T15:39:15.268Z,60.70
2023-02-06T15:41:51.379Z,62.00
2023-02-06T15:44:44.545Z,61.90
2023-02-06T15:47:14.655Z,63.30
2023-02-06T15:49:44.924Z,62.60
2023-02-06T15:52:13.558Z,62.50
2023-02-06T15:54:42.542Z,62.40
2023-02-06T15:57:31.181Z,62.40
2023-02-06T15:59:58.453Z,63.40
2023-02-06T16:02:36.956Z,62.80
2023-02-06T16:05:05.871Z,64.20
2023-02-06T16:07:35.852Z,63.50
2023-02-06T16:10:22.790Z,63.60
2023-02-06T16:12:51.185Z,62.50
2023-02-06T16:15:38.516Z,63.50
2023-02-06T16:18:24.037Z,65.20
2023-02-06T16:20:52.170Z,66.60
2023-02-06T16:23:23.783Z,64.60
2023-02-06T16:26:09.955Z,65.90
2023-02-06T16:29:03.079Z,65.60
2023-02-06T16:31:33.823Z,66.60
2023-02-06T16:34:03.193Z,65.30
2023-02-06T16:36:32.277Z,64.50
2023-02-06T16:39:04.030Z,65.80
2023-02-06T16:41:38.156Z,65.90
2023-02-06T16:44:11.245Z,66.70
2023-02-06T16:46:38.039Z,66.40
2023-02-06T16:49:19.680Z,65.10
2023-02-06T16:51:48.476Z,67.30
2023-02-06T16:54:24.426Z,66.00
2023-02-06T16:56:52.034Z,66.90
2023-02-06T16:59:19.868Z,65.90
2023-02-06T17:01:46.548Z,66.20
2023-02-06T17:04:13.280Z,65.00
2023-02-06T17:06:40.598Z,65.30
2023-02-06T17:09:10.936Z,65.60
2023-02-06T17:11:38.713Z,66.10
2023-02-06T17:14:06.004Z,65.70
2023-02-06T17:16:33.706Z,65.50
2023-02-06T17:19:00.488Z,65.60
2023-02-06T17:21:29.749Z,65.30
2023-02-06T17:23:56.562Z,65.70
2023-02-06T17:26:23.792Z,65.50
2023-02-06T17:28:51.404Z,65.70
2023-02-06T17:31:19.365Z,65.90
2023-02-06T17:33:46.156Z,66.30
2023-02-06T17:36:29.276Z,65.50
2023-02-06T17:38:59.011Z,67.80
2023-02-06T17:41:26.793Z,66.70
2023-02-06T17:43:53.576Z,66.90
2023-02-06T17:46:20.402Z,66.50
2023-02-06T17:48:47.149Z,66.60
2023-02-06T17:51:14.185Z,66.80
2023-02-06T17:53:41.023Z,67.10
2023-02-06T17:56:12.700Z,67.10
2023-02-06T17:58:43.267Z,68.60
2023-02-06T18:01:15.024Z,69.30
2023-02-06T18:03:42.485Z,68.20
2023-02-06T18:06:09.355Z,67.90
2023-02-06T18:08:36.680Z,68.00
2023-02-06T18:11:11.907Z,68.20
2023-02-06T18:13:42.578Z,70.50
2023-02-06T18:16:14.745Z,70.10
2023-02-06T18:18:41.962Z,70.20
2023-02-06T18:21:08.778Z,68.50
2023-02-06T18:23:35.653Z,68.50
2023-02-06T18:26:04.666Z,68.70
2023-02-06T18:28:32.163Z,69.70
2023-02-06T18:31:02.148Z,69.00
2023-02-06T18:33:30.775Z,69.00
2023-02-06T18:35:57.923Z,70.10
2023-02-06T18:38:24.785Z,69.10
2023-02-06T18:40:51.703Z,69.10
2023-02-06T18:43:18.449Z,69.20
2023-02-06T18:45:45.343Z,69.10
2023-02-06T18:48:13.480Z,69.20
2023-02-06T18:50:42.083Z,70.50
2023-02-06T18:53:09.567Z,70.40
2023-02-06T18:55:37.283Z,71.20
2023-02-06T18:58:05.242Z,69.80
2023-02-06T19:00:34.562Z,70.90
2023-02-06T19:03:02.009Z,70.60
2023-02-06T19:05:30.687Z,70.30
2023-02-06T19:07:57.562Z,70.10
2023-02-06T19:10:25.752Z,70.10
2023-02-06T19:12:52.508Z,70.10
2023-02-06T19:15:19.268Z,70.20
2023-02-06T19:17:46.170Z,71.20
2023-02-06T19:20:12.986Z,70.60
2023-02-06T19:22:39.914Z,70.50
2023-02-06T19:25:10.898Z,70.60
2023-02-06T19:27:38.964Z,71.90
2023-02-06T19:30:07.966Z,71.10
2023-02-06T19:32:35.015Z,71.60
2023-02-06T19:35:02.159Z,71.30
2023-02-06T19:37:28.996Z,71.10
2023-02-06T19:39:55.871Z,71.20
2023-02-06T19:42:22.726Z,70.90
2023-02-06T19:44:54.759Z,70.90
2023-02-06T19:47:21.938Z,72.60
2023-02-06T19:49:52.769Z,71.00
2023-02-06T19:52:20.159Z,72.70
2023-02-06T19:54:47.721Z,71.20
2023-02-06T19:57:15.947Z,71.10
2023-02-06T19:59:42.857Z,71.50
2023-02-06T20:02:15.945Z,71.20
2023-02-06T20:04:43.120Z,73.40
2023-02-06T20:07:09.871Z,71.90
2023-02-06T20:09:41.127Z,71.50
2023-02-06T20:12:10.002Z,71.80
2023-02-06T20:14:36.884Z,72.60
2023-02-06T20:17:04.194Z,71.70
2023-02-06T20:19:31.490Z,71.80
2023-02-06T20:21:59.810Z,72.10
2023-02-06T20:24:30.076Z,72.80
2023-02-06T20:27:00.276Z,73.00
2023-02-06T20:29:36.246Z,74.30
2023-02-06T20:32:04.223Z,72.90
2023-02-06T20:34:31.180Z,72.40
2023-02-06T20:36:58.274Z,71.90
2023-02-06T20:39:26.281Z,72.10
2023-02-06T20:41:53.804Z,72.60
2023-02-06T20:44:21.392Z,72.50
2023-02-06T20:46:48.492Z,72.70
2023-02-06T20:49:18.301Z,72.30
2023-02-06T20:51:45.157Z,73.50
2023-02-06T20:54:12.267Z,73.10
2023-02-06T20:56:39.886Z,72.60
2023-02-06T20:59:07.861Z,72.90
2023-02-06T21:01:34.855Z,72.80
2023-02-06T21:04:07.720Z,72.50
2023-02-06T21:06:36.418Z,73.60
2023-02-06T21:09:04.605Z,73.60
2023-02-06T21:11:35.888Z,73.50
2023-02-06T21:14:04.325Z,74.10
2023-02-06T21:16:32.088Z,73.90
2023-02-06T21:19:00.296Z,73.50
2023-02-06T21:21:27.255Z,73.90
2023-02-06T21:23:57.119Z,72.90
2023-02-06T21:26:25.170Z,73.10
2023-02-06T21:28:52.937Z,73.80
2023-02-06T21:31:23.251Z,73.60
2023-02-06T21:33:51.580Z,75.40
2023-02-06T21:36:18.706Z,74.00
2023-02-06T21:38:45.435Z,73.30
2023-02-06T21:41:16.070Z,73.00
2023-02-06T21:43:43.533Z,74.70
2023-02-06T21:46:11.409Z,73.20
2023-02-06T21:48:38.492Z,73.60
2023-02-06T21:51:14.122Z,73.50
2023-02-06T21:53:41.557Z,74.90
2023-02-06T21:56:13.362Z,73.50
2023-02-06T21:58:40.141Z,74.40
2023-02-06T22:01:08.943Z,73.00
2023-02-06T22:03:36.212Z,73.00
2023-02-06T22:06:08.607Z,73.20
2023-02-06T22:08:40.744Z,74.90
2023-02-06T22:11:22.435Z,74.90
2023-02-06T22:13:49.747Z,75.10
2023-02-06T22:16:19.382Z,73.90
2023-02-06T22:18:46.470Z,74.50
2023-02-06T22:21:16.100Z,73.70
2023-02-06T22:23:45.098Z,75.00
2023-02-06T22:26:14.149Z,75.00
2023-02-06T22:28:41.379Z,74.80
2023-02-06T22:31:25.106Z,74.00
2023-02-06T22:33:52.522Z,74.60
2023-02-06T22:36:22.065Z,74.00
2023-02-06T22:39:00.651Z,75.20
2023-02-06T22:41:28.622Z,74.80
2023-02-06T22:43:55.738Z,74.00
2023-02-06T22:46:26.399Z,73.60
2023-02-06T22:48:53.575Z,74.90
2023-02-06T22:51:21.135Z,73.70
2023-02-06T22:53:48.015Z,74.50
2023-02-06T22:56:34.850Z,73.80
2023-02-06T22:59:06.605Z,75.00
2023-02-06T23:01:49.153Z,75.40
2023-02-06T23:04:21.899Z,74.70
2023-02-06T23:06:49.547Z,75.50
2023-02-06T23:09:22.893Z,74.90
2023-02-06T23:11:50.142Z,75.70
2023-02-06T23:14:17.967Z,73.70
2023-02-06T23:16:45.479Z,74.60
2023-02-06T23:19:13.515Z,74.30
2023-02-06T23:21:42.219Z,74.90
2023-02-06T23:24:10.335Z,75.10
2023-02-06T23:26:38.184Z,74.70
2023-02-06T23:29:06.565Z,74.70
2023-02-06T23:31:33.810Z,74.90
2023-02-06T23:34:00.744Z,74.70
2023-02-06T23:36:28.243Z,74.00
2023-02-06T23:38:55.525Z,75.00
2023-02-06T23:41:27.583Z,74.50
2023-02-06T23:43:59.889Z,76.10
2023-02-06T23:46:28.765Z,76.10
2023-02-06T23:48:55.831Z,75.40
2023-02-06T23:51:23.987Z,74.20
2023-02-06T23:53:51.552Z,75.20
2023-02-06T23:56:22.405Z,74.80
2023-02-06T23:58:49.794Z,76.00
